Nearby METAR Reports

 

KIMT - Iron Mountain, Michigan, USA
Distance from station: 0 29mi, 47km
Updated: Fri, 30-Sep-2022 6:54pm CDT
Clear
Clear
 Wind from SE
Wind: SE 3 mph , 6 km/h
Temperature: 57°F , 14°C
Dew Point: 45°F , 7°C
Humidity: 63%
Barometer: 30.19 inHg , 1022.4 hPa
Clouds: Clear
Visibility: 10 miles , 16 km
2022/09/30 23:54 KIMT 302354Z AUTO 13003KT 10SM CLR 14/07 A3019 RMK AO2 SLP232 T01390067 10211 20139 55003
KMNM - Menominee, Michigan, USA
Distance from station: SE 31mi, 51km
Updated: Fri, 30-Sep-2022 6:56pm CDT
Clear
Clear
 Wind from calm
Wind: Calm
Temperature: 57°F , 14°C
Dew Point: 50°F , 10°C
Humidity: 77%
Barometer: 30.22 inHg , 1023.4 hPa
Clouds: Clear
Visibility: 10 miles , 16 km
2022/09/30 23:56 KMNM 302356Z AUTO 00000KT 10SM CLR 14/10 A3022 RMK AO2 SLP235 6//// T01390100 10183 20139 56006 PNO $
 
KOCQ - Oconto, Wisconsin, USA
Distance from station: SSE 38mi, 61km
Updated: Fri, 30-Sep-2022 7:35pm CDT
Clear
Clear
 Wind from calm
Wind: Calm
Temperature: 50°F , 10°C
Dew Point: 50°F , 10°C
Humidity: 100%
Barometer: 30.21 inHg , 1023 hPa
Clouds: Clear
Visibility: 10 miles , 16 km
2022/10/01 00:35 KOCQ 010035Z AUTO 00000KT 10SM CLR 10/10 A3021 RMK AO1 T01000098
KEZS - Shawano Muni, Wisconsin, USA
Distance from station: SSW 48mi, 77km
Updated: Fri, 30-Sep-2022 7:55pm CDT
Clear
Clear
 Wind from calm
Wind: Calm
Temperature: 54°F , 12°C
Dew Point: 48°F , 9°C
Humidity: 82%
Barometer: 30.20 inHg , 1022.7 hPa
Clouds: Clear
Visibility: 10 miles , 16 km
2022/10/01 00:55 KEZS 010055Z AUTO 00000KT 10SM CLR 12/09 A3020 RMK AO2 T01200092
 
KAIG - Antigo/Langlade, Wisconsin, USA
Distance from station: WSW 51mi, 82km
Updated: Fri, 30-Sep-2022 7:35pm CDT
Clear
Clear
 Wind from calm
Wind: Calm
Temperature: 48°F , 9°C
Dew Point: 43°F , 6°C
Humidity: 82%
Barometer: 30.21 inHg , 1023 hPa
Clouds: Clear
Visibility: 10 miles , 16 km
2022/10/01 00:35 KAIG 010035Z AUTO 00000KT 10SM CLR 09/06 A3021 RMK AO2 T00870057
KSUE - Sturgeon Bay, Wisconsin, USA
Distance from station: SE 51mi, 82km
Updated: Fri, 30-Sep-2022 6:56pm CDT
Clear
Clear
 Wind from SE
Wind: SE 3 mph , 6 km/h
Temperature: 54°F , 12°C
Dew Point: 48°F , 9°C
Humidity: 82%
Barometer: 30.23 inHg , 1023.7 hPa
Clouds: Clear
Visibility: 10 miles , 16 km
2022/09/30 23:56 KSUE 302356Z AUTO 14003KT 10SM CLR 12/09 A3023 RMK AO2 SLP237 T01220094 10183 20122 56007
 
KESC - Escanaba, Michigan, USA
Distance from station: ENE 56mi, 90km
Updated: Fri, 30-Sep-2022 6:56pm CDT
Clear
Clear
 Wind from S
Wind: S 5 mph , 7 km/h
Temperature: 57°F , 14°C
Dew Point: 52°F , 11°C
Humidity: 82%
Barometer: 30.21 inHg , 1023 hPa
Clouds: Clear
Visibility: 10 miles , 16 km
2022/09/30 23:56 KESC 302356Z AUTO 17004KT 10SM CLR 14/11 A3021 RMK AO2 SLP237 6//// T01390111 10172 20139 56009 PNO $
KCLI - Clintonville, Wisconsin, USA
Distance from station: SSW 62mi, 99km
Updated: Fri, 30-Sep-2022 7:35pm CDT
Clear
Clear
 Wind from calm
Wind: Calm
Temperature: 52°F , 11°C
Dew Point: 45°F , 7°C
Humidity: 77%
Barometer: 30.21 inHg , 1023 hPa
Clouds: Clear
Visibility: 10 miles , 16 km
2022/10/01 00:35 KCLI 010035Z AUTO 00000KT 10SM CLR 11/07 A3021 RMK AO2 T01140071
 
KGRB - Ashwaubenon, Wisconsin, USA
Distance from station: S 63mi, 102km
Updated: Fri, 30-Sep-2022 6:53pm CDT
Clear
Clear
 Wind from ESE
Wind: ESE 7 mph , 11 km/h
Temperature: 59°F , 15°C
Dew Point: 46°F , 8°C
Humidity: 63%
Barometer: 30.21 inHg , 1023 hPa
Clouds: Clear
Visibility: 10 miles , 16 km
2022/09/30 23:53 KGRB 302353Z 11006KT 10SM CLR 15/08 A3021 RMK AO2 SLP235 T01500083 10217 20144 55005
KEGV - Eagle River, Wisconsin, USA
Distance from station: NW 66mi, 107km
Updated: Fri, 30-Sep-2022 7:35pm CDT
Clear
Clear
 Wind from calm
Wind: Calm
Temperature: 48°F , 9°C
Dew Point: 39°F , 4°C
Humidity: 71%
Barometer: 30.20 inHg , 1022.7 hPa
Clouds: Clear
Visibility: 10 miles , 16 km
2022/10/01 00:35 KEGV 010035Z AUTO 00000KT 10SM CLR 09/04 A3020 RMK AO2 T00900035
 
KRHI - Rhinelander, Wisconsin, USA
Distance from station: WNW 68mi, 109km
Updated: Fri, 30-Sep-2022 6:53pm CDT
Clear
Clear
 Wind from calm
Wind: Calm
Temperature: 52°F , 11°C
Dew Point: 39°F , 4°C
Humidity: 62%
Barometer: 30.21 inHg , 1023 hPa
Clouds: Clear
Visibility: 10 miles , 16 km
2022/09/30 23:53 KRHI 302353Z AUTO 00000KT 10SM CLR 11/04 A3021 RMK AO2 SLP244 T01060044 10194 20106 56004
KLNL - Land O Lakes, Wisconsin, USA
Distance from station: NW 74mi, 119km
Updated: Fri, 30-Sep-2022 7:35pm CDT
Clear
Clear
 Wind from calm
Wind: Calm
Temperature: 46°F , 8°C
Dew Point: 43°F , 6°C
Humidity: 87%
Barometer: 30.22 inHg , 1023.4 hPa
Clouds: Clear
Visibility: 10 miles , 16 km
2022/10/01 00:35 KLNL 010035Z AUTO 00000KT 10SM CLR 08/06 A3022 RMK AO2 T00830060
 
KSAW - Gwinn/Sawyer, Michigan, USA
Distance from station: NNE 74mi, 120km
Updated: Fri, 30-Sep-2022 7:45pm CDT
Clear
Clear
 Wind from S
Wind: S 6 mph , 9 km/h
Temperature: 54°F , 12°C
Dew Point: 46°F , 8°C
Humidity: 77%
Barometer: 30.20 inHg , 1022.7 hPa
Clouds: Clear
Visibility: 10 miles , 16 km
2022/10/01 00:45 KSAW 010045Z 18005KT 10SM CLR 12/08 A3020